Terminal Aerodrome Forecast
Issued by NWS Grand Forks, ND

Home | Current Version | Previous Version | Graphics & Text | Print | Product List | Glossary On
Versions: 1 2 3 4 5 6 7 8 9 10 11 12 13 14 15 16 17 18
000
FTUS43 KFGF 291100
TAFGFK
TAF
KGFK 291131Z 2912/3012 32010KT P6SM OVC025
     FM291600 32010KT P6SM OVC035
     FM292100 19007KT P6SM SCT035 BKN120
     FM300300 16010KT P6SM -RA OVC050
     FM300700 01010KT P6SM BKN050=

USA.gov is the U.S. government's official web portal to all federal, state and local government web resources and services.